Time;durP1;ratioP1;P1;durP2;ratioP2;P2;SDS_P1;SDS_P2;PMS_P1;PMS_P2;Temp;Humidity;BMP_temperature;BMP_pressure;BME280_temperature;BME280_humidity;BME280_pressure;Samples;Min_cycle;Max_cycle;Signal;HPM_P1;HPM_P2
2021/11/20 00:01:17;;;;;;;17.80;4.28;;;11.80;99.90;;;;;;5100964;28;20544;-73
2021/11/20 00:03:45;;;;;;;15.68;3.85;;;11.80;99.90;;;;;;5100003;28;20099;-72
2021/11/20 00:06:13;;;;;;;16.63;3.78;;;11.80;99.90;;;;;;5099519;28;20016;-73
2021/11/20 00:08:39;;;;;;;13.68;4.22;;;11.80;99.90;;;;;;5084657;28;20020;-73
2021/11/20 00:11:11;;;;;;;18.67;4.22;;;11.80;99.90;;;;;;5099941;28;20135;-73
2021/11/20 00:13:38;;;;;;;10.18;2.85;;;11.80;99.90;;;;;;5100073;28;20103;-72
2021/11/20 00:16:06;;;;;;;16.15;4.20;;;11.80;99.90;;;;;;5081990;28;20027;-73
2021/11/20 00:18:33;;;;;;;17.05;3.33;;;11.80;99.90;;;;;;5101048;28;20032;-73
2021/11/20 00:21:01;;;;;;;15.68;4.00;;;11.80;99.90;;;;;;5081815;28;20439;-73
2021/11/20 00:23:32;;;;;;;16.65;4.03;;;11.80;99.90;;;;;;5101651;28;20024;-72
2021/11/20 00:25:59;;;;;;;19.67;5.03;;;11.80;99.90;;;;;;5098000;28;20354;-73
2021/11/20 00:28:42;;;;;;;12.80;3.85;;;11.80;99.90;;;;;;5099314;27;20501;-72
2021/11/20 00:31:15;;;;;;;15.25;4.30;;;11.70;99.90;;;;;;5096827;28;20505;-73
2021/11/20 00:33:42;;;;;;;11.73;3.80;;;11.70;99.90;;;;;;5098733;28;20504;-72
2021/11/20 00:36:09;;;;;;;13.65;4.22;;;11.80;99.90;;;;;;5100764;28;20040;-72
2021/11/20 00:38:37;;;;;;;14.93;3.53;;;11.70;99.90;;;;;;5099947;28;20483;-72
2021/11/20 00:41:08;;;;;;;7.78;2.65;;;11.80;99.90;;;;;;5100218;28;20020;-72
2021/11/20 00:43:35;;;;;;;14.30;3.97;;;11.80;99.90;;;;;;5098724;28;20493;-72
2021/11/20 00:46:01;;;;;;;15.60;4.50;;;11.80;99.90;;;;;;5082968;28;20034;-72
2021/11/20 00:48:27;;;;;;;17.95;4.30;;;11.70;99.90;;;;;;5100008;28;20051;-72
2021/11/20 00:50:57;;;;;;;22.08;5.10;;;11.70;99.90;;;;;;5099849;28;20447;-72
2021/11/20 00:53:24;;;;;;;17.02;5.15;;;11.70;99.90;;;;;;5098677;28;20477;-72
2021/11/20 00:55:50;;;;;;;11.35;4.45;;;11.70;99.90;;;;;;5098916;28;20031;-73
2021/11/20 00:58:16;;;;;;;16.13;4.80;;;11.70;99.90;;;;;;5098975;28;20020;-72
2021/11/20 01:00:49;;;;;;;16.42;4.10;;;11.70;99.90;;;;;;5098658;28;20028;-72
2021/11/20 01:03:15;;;;;;;14.90;3.85;;;11.60;99.90;;;;;;5101372;28;20020;-73
2021/11/20 01:05:42;;;;;;;17.73;4.90;;;11.70;99.90;;;;;;5097114;28;20564;-73
2021/11/20 01:08:09;;;;;;;10.70;4.22;;;11.70;99.90;;;;;;5098056;28;20390;-73
2021/11/20 01:10:38;;;;;;;17.92;4.40;;;11.70;99.90;;;;;;5097354;28;20120;-73
2021/11/20 01:13:05;;;;;;;8.77;3.40;;;11.70;99.90;;;;;;5098334;28;20306;-72
2021/11/20 01:15:37;;;;;;;12.35;3.53;;;11.70;99.90;;;;;;5099729;28;20438;-73
2021/11/20 01:18:06;;;;;;;13.93;4.25;;;11.70;99.90;;;;;;5089286;28;20031;-72
2021/11/20 01:20:33;;;;;;;8.20;4.18;;;11.70;99.90;;;;;;5098501;28;20032;-72
2021/11/20 01:22:59;;;;;;;11.02;4.25;;;11.70;99.90;;;;;;5081179;28;20080;-72
2021/11/20 01:25:25;;;;;;;16.08;5.10;;;11.70;99.90;;;;;;5097985;28;20027;-73
2021/11/20 01:27:52;;;;;;;15.63;5.85;;;11.70;99.90;;;;;;5098324;28;20059;-72
2021/11/20 01:30:19;;;;;;;10.02;5.18;;;11.70;99.90;;;;;;5099442;28;20073;-73
2021/11/20 01:32:45;;;;;;;12.95;4.85;;;11.70;99.90;;;;;;5099907;28;20034;-72
2021/11/20 01:35:11;;;;;;;10.63;5.70;;;11.70;99.90;;;;;;5097463;28;20039;-73
2021/11/20 01:37:39;;;;;;;15.98;5.35;;;11.70;99.90;;;;;;5097662;28;20027;-73
2021/11/20 01:40:09;;;;;;;17.73;6.72;;;11.70;99.90;;;;;;5098466;28;20036;-73
2021/11/20 01:42:35;;;;;;;18.52;6.55;;;11.70;99.90;;;;;;5100950;28;20106;-73
2021/11/20 01:45:10;;;;;;;9.93;4.30;;;11.70;99.90;;;;;;5098260;28;20552;-72
2021/11/20 01:47:48;;;;;;;11.65;4.78;;;11.70;99.90;;;;;;5097715;28;20036;-72
2021/11/20 01:50:38;;;;;;;18.67;6.22;;;11.70;99.90;;;;;;5098107;28;20097;-73
2021/11/20 01:53:14;;;;;;;16.52;5.40;;;11.70;99.90;;;;;;5097779;28;20031;-71
2021/11/20 01:56:06;;;;;;;11.77;5.38;;;11.70;99.90;;;;;;5095355;28;20028;-72
2021/11/20 01:58:39;;;;;;;11.32;5.05;;;11.60;99.90;;;;;;5099828;28;20016;-72
2021/11/20 02:01:26;;;;;;;15.93;6.38;;;11.60;99.90;;;;;;5100092;28;20046;-73
2021/11/20 02:04:09;;;;;;;14.48;5.63;;;11.60;99.90;;;;;;5099318;28;20028;-72
2021/11/20 02:06:45;;;;;;;14.25;5.95;;;11.60;99.90;;;;;;5097191;28;20043;-73
2021/11/20 02:09:35;;;;;;;15.18;5.85;;;11.60;99.90;;;;;;5079555;28;20106;-72
2021/11/20 02:12:07;;;;;;;15.02;5.93;;;11.60;99.90;;;;;;5101780;28;20550;-74
2021/11/20 02:14:33;;;;;;;21.33;6.82;;;11.60;99.90;;;;;;5103432;28;20044;-72
2021/11/20 02:17:14;;;;;;;14.10;5.88;;;11.60;99.90;;;;;;5083769;28;20224;-72
2021/11/20 02:19:44;;;;;;;11.80;5.78;;;11.60;99.90;;;;;;5101240;28;20020;-72
2021/11/20 02:22:20;;;;;;;13.15;5.45;;;11.60;99.90;;;;;;5102488;28;20100;-72
2021/11/20 02:24:46;;;;;;;15.82;6.57;;;11.60;99.90;;;;;;5103361;28;20393;-72
2021/11/20 02:27:12;;;;;;;21.13;8.10;;;11.60;99.90;;;;;;5101936;28;20032;-72
2021/11/20 02:29:47;;;;;;;14.13;7.47;;;11.60;99.90;;;;;;5101020;28;20455;-71
2021/11/20 02:32:22;;;;;;;15.52;7.47;;;11.60;99.90;;;;;;5098779;28;20027;-74
2021/11/20 02:34:50;;;;;;;22.70;7.85;;;11.60;99.90;;;;;;5103351;28;20047;-72
2021/11/20 02:37:17;;;;;;;20.63;6.90;;;11.50;99.90;;;;;;5085374;28;20031;-73
2021/11/20 02:39:43;;;;;;;18.92;7.25;;;11.60;99.90;;;;;;5099281;28;20106;-73
2021/11/20 02:42:15;;;;;;;16.17;7.20;;;11.60;99.90;;;;;;5101131;28;20027;-72
2021/11/20 02:44:41;;;;;;;22.63;7.72;;;11.60;99.90;;;;;;5101085;28;20153;-72
2021/11/20 02:47:19;;;;;;;17.63;7.47;;;11.60;99.90;;;;;;5101576;28;20106;-73
2021/11/20 02:49:45;;;;;;;16.35;6.57;;;11.60;99.90;;;;;;5102725;28;20063;-73
2021/11/20 02:52:12;;;;;;;20.85;7.03;;;11.60;99.90;;;;;;5101544;28;20066;-73
2021/11/20 02:54:38;;;;;;;17.15;6.32;;;11.60;99.90;;;;;;5100910;28;20028;-73
2021/11/20 02:57:13;;;;;;;17.35;6.28;;;11.60;99.90;;;;;;5101984;28;20032;-73
2021/11/20 02:59:40;;;;;;;18.90;6.07;;;11.50;99.90;;;;;;5083872;28;20081;-73
2021/11/20 03:02:07;;;;;;;17.05;5.50;;;11.60;99.90;;;;;;5077115;28;20028;-74
2021/11/20 03:04:33;;;;;;;13.60;5.03;;;11.60;99.90;;;;;;5101872;28;20080;-73
2021/11/20 03:06:59;;;;;;;15.55;4.80;;;11.50;99.90;;;;;;5081835;28;20040;-74
2021/11/20 03:09:29;;;;;;;15.60;4.70;;;11.60;99.90;;;;;;5098876;28;20035;-73
2021/11/20 03:11:56;;;;;;;15.35;4.68;;;11.60;99.90;;;;;;5100776;28;20933;-72
2021/11/20 03:14:23;;;;;;;13.68;4.20;;;11.60;99.90;;;;;;5098583;28;20473;-73
2021/11/20 03:16:58;;;;;;;11.52;4.60;;;11.60;99.90;;;;;;5101992;28;20059;-73
2021/11/20 03:19:27;;;;;;;12.57;5.03;;;11.60;99.90;;;;;;5102421;28;20068;-73
2021/11/20 03:21:57;;;;;;;13.60;5.38;;;11.60;99.90;;;;;;5100810;28;20035;-73
2021/11/20 03:24:24;;;;;;;14.02;4.38;;;11.60;99.90;;;;;;5100602;28;20389;-73
2021/11/20 03:26:50;;;;;;;20.75;6.22;;;11.60;99.90;;;;;;5101167;28;20024;-72
2021/11/20 03:29:16;;;;;;;15.93;5.43;;;11.60;99.90;;;;;;5099938;28;20080;-73
2021/11/20 03:31:43;;;;;;;14.45;6.80;;;11.60;99.90;;;;;;5080384;28;20052;-73
2021/11/20 03:34:09;;;;;;;16.23;6.53;;;11.60;99.90;;;;;;5101046;28;20031;-73
2021/11/20 03:36:36;;;;;;;17.02;6.90;;;11.60;99.90;;;;;;5101200;28;20034;-73
2021/11/20 03:39:07;;;;;;;16.67;7.15;;;11.60;99.90;;;;;;5099712;28;20565;-74
2021/11/20 03:41:33;;;;;;;24.58;8.10;;;11.60;99.90;;;;;;5100016;28;20484;-73
2021/11/20 03:43:59;;;;;;;20.55;8.70;;;11.60;99.90;;;;;;5104379;28;20020;-73
2021/11/20 03:46:26;;;;;;;21.45;8.43;;;11.60;99.90;;;;;;5100599;28;20409;-73
2021/11/20 03:48:52;;;;;;;21.83;8.65;;;11.60;99.90;;;;;;5099404;28;20024;-74
2021/11/20 03:51:18;;;;;;;19.20;8.35;;;11.60;99.90;;;;;;5101962;28;20048;-74
2021/11/20 03:53:44;;;;;;;21.98;8.18;;;11.60;99.90;;;;;;5101294;28;20051;-73
2021/11/20 03:56:11;;;;;;;25.00;9.55;;;11.60;99.90;;;;;;5099766;28;20032;-73
2021/11/20 03:58:38;;;;;;;18.67;8.02;;;11.60;99.90;;;;;;5092028;28;20081;-73
2021/11/20 04:01:10;;;;;;;22.08;8.77;;;11.60;99.90;;;;;;5098051;28;20099;-73
2021/11/20 04:03:39;;;;;;;22.95;9.25;;;11.60;99.90;;;;;;5084050;28;20472;-73
2021/11/20 04:06:10;;;;;;;18.80;9.07;;;11.60;99.90;;;;;;5099618;28;20024;-73
2021/11/20 04:08:36;;;;;;;21.23;8.88;;;11.60;99.90;;;;;;5103630;28;20520;-73
2021/11/20 04:11:02;;;;;;;26.02;10.48;;;11.60;99.90;;;;;;5100138;28;20044;-73
2021/11/20 04:13:27;;;;;;;24.15;9.50;;;11.60;99.90;;;;;;5102469;28;20051;-73
2021/11/20 04:15:53;;;;;;;22.13;9.43;;;11.60;99.90;;;;;;5100446;28;20437;-73
2021/11/20 04:18:20;;;;;;;23.77;10.48;;;11.60;99.90;;;;;;5098914;28;20115;-73
2021/11/20 04:20:46;;;;;;;23.35;10.98;;;11.60;99.90;;;;;;5100626;28;20066;-73
2021/11/20 04:23:12;;;;;;;17.27;9.32;;;11.60;99.90;;;;;;5099882;28;20027;-73
2021/11/20 04:25:39;;;;;;;25.70;10.10;;;11.60;99.90;;;;;;5101143;28;20485;-74
2021/11/20 04:28:05;;;;;;;24.60;10.63;;;11.60;99.90;;;;;;5100713;28;20024;-74
2021/11/20 04:30:31;;;;;;;23.88;9.90;;;11.60;99.90;;;;;;5098754;28;20032;-73
2021/11/20 04:32:57;;;;;;;25.98;11.32;;;11.60;99.90;;;;;;5099750;28;20020;-73
2021/11/20 04:35:25;;;;;;;22.35;10.80;;;11.60;99.90;;;;;;5100417;28;20034;-73
2021/11/20 04:37:51;;;;;;;24.88;9.60;;;11.60;99.90;;;;;;5081459;28;20054;-73
2021/11/20 04:40:18;;;;;;;32.30;11.88;;;11.60;99.90;;;;;;5101380;28;20058;-72
2021/11/20 04:42:44;;;;;;;28.55;10.85;;;11.60;99.90;;;;;;5099986;28;20374;-73
2021/11/20 04:45:15;;;;;;;27.67;10.73;;;11.60;99.90;;;;;;5101917;28;20111;-73
2021/11/20 04:47:41;;;;;;;24.83;10.18;;;11.60;99.90;;;;;;5098872;28;20031;-73
2021/11/20 04:50:08;;;;;;;28.27;10.27;;;11.60;99.90;;;;;;5082606;28;20035;-73
2021/11/20 04:52:34;;;;;;;21.98;9.52;;;11.60;99.90;;;;;;5101371;28;20036;-73
2021/11/20 04:55:00;;;;;;;24.80;9.75;;;11.60;99.90;;;;;;5098442;28;20027;-74
2021/11/20 04:57:27;;;;;;;23.50;8.80;;;11.60;99.90;;;;;;5079864;28;20027;-72
2021/11/20 04:59:52;;;;;;;21.88;8.15;;;11.50;99.90;;;;;;5100459;28;20023;-73
2021/11/20 05:02:18;;;;;;;22.70;9.52;;;11.60;99.90;;;;;;5100632;28;20374;-73
2021/11/20 05:04:44;;;;;;;21.10;8.35;;;11.60;99.90;;;;;;5098299;28;20399;-73
2021/11/20 05:07:10;;;;;;;25.38;9.25;;;11.60;99.90;;;;;;5098738;28;20115;-74
2021/11/20 05:09:37;;;;;;;24.88;8.57;;;11.60;99.90;;;;;;5097945;28;20029;-73
2021/11/20 05:12:07;;;;;;;18.55;7.53;;;11.60;99.90;;;;;;5101580;28;20088;-74
2021/11/20 05:14:34;;;;;;;19.80;8.55;;;11.60;99.90;;;;;;5101132;28;20042;-73
2021/11/20 05:16:59;;;;;;;25.27;10.27;;;11.60;99.90;;;;;;5099381;28;20031;-72
2021/11/20 05:19:25;;;;;;;20.92;8.20;;;11.60;99.90;;;;;;5100338;28;20470;-73
2021/11/20 05:21:51;;;;;;;17.52;8.63;;;11.60;99.90;;;;;;5102214;28;20028;-73
2021/11/20 05:24:17;;;;;;;24.40;10.02;;;11.60;99.90;;;;;;5099436;28;20107;-73
2021/11/20 05:26:43;;;;;;;18.17;9.23;;;11.60;99.90;;;;;;5099575;28;20040;-74
2021/11/20 05:31:57;;;;;;;24.60;11.00;;;11.60;99.90;;;;;;5075908;28;20465;-73
2021/11/20 05:34:23;;;;;;;32.67;10.77;;;11.60;99.90;;;;;;5099598;28;20031;-73
2021/11/20 05:36:49;;;;;;;22.05;10.10;;;11.60;99.90;;;;;;5085999;28;20035;-73
2021/11/20 05:39:15;;;;;;;22.77;10.23;;;11.60;99.90;;;;;;5099297;28;20459;-72
2021/11/20 05:41:42;;;;;;;27.65;10.23;;;11.60;99.90;;;;;;5100952;28;20485;-73
2021/11/20 05:44:11;;;;;;;27.65;10.57;;;11.50;99.90;;;;;;5099908;28;20404;-72
2021/11/20 05:46:41;;;;;;;22.15;9.35;;;11.50;99.90;;;;;;5104018;28;20082;-73
2021/11/20 05:49:07;;;;;;;20.08;9.02;;;11.50;99.90;;;;;;5102132;28;20031;-73
2021/11/20 05:51:36;;;;;;;22.52;9.90;;;11.50;99.90;;;;;;5103632;28;20047;-73
2021/11/20 05:54:05;;;;;;;23.70;9.82;;;11.50;99.90;;;;;;5101649;28;20530;-74
2021/11/20 05:56:31;;;;;;;22.63;10.25;;;11.50;99.90;;;;;;5102672;28;20035;-73
2021/11/20 05:58:57;;;;;;;24.75;10.40;;;11.50;99.90;;;;;;5102705;28;20056;-72
2021/11/20 06:01:23;;;;;;;23.90;9.45;;;11.50;99.90;;;;;;5100901;28;20058;-73
2021/11/20 06:03:49;;;;;;;27.10;10.07;;;11.50;99.90;;;;;;5103513;28;20036;-73
2021/11/20 06:06:17;;;;;;;22.05;10.00;;;11.50;99.90;;;;;;5102733;28;20032;-73
2021/11/20 06:08:42;;;;;;;18.90;8.95;;;11.50;99.90;;;;;;5104914;28;20027;-73
2021/11/20 06:11:09;;;;;;;19.10;10.02;;;11.50;99.90;;;;;;5102171;28;20028;-73
2021/11/20 06:13:35;;;;;;;23.95;9.80;;;11.50;99.90;;;;;;5101523;28;20024;-72
2021/11/20 06:16:02;;;;;;;20.67;9.77;;;11.50;99.90;;;;;;5104162;28;20035;-73
2021/11/20 06:18:28;;;;;;;16.38;9.80;;;11.50;99.90;;;;;;5101789;27;20077;-73
2021/11/20 06:20:55;;;;;;;20.70;10.35;;;11.50;99.90;;;;;;5102285;28;20019;-73
2021/11/20 06:23:22;;;;;;;21.05;9.43;;;11.50;99.90;;;;;;5104062;28;20140;-73
2021/11/20 06:25:48;;;;;;;23.40;10.75;;;11.50;99.90;;;;;;5104256;28;20032;-73
2021/11/20 06:28:14;;;;;;;18.83;9.98;;;11.50;99.90;;;;;;5065898;28;20028;-73
2021/11/20 06:30:40;;;;;;;25.02;10.90;;;11.50;99.90;;;;;;5102662;28;20032;-73
2021/11/20 06:33:06;;;;;;;17.73;9.75;;;11.50;99.90;;;;;;5101260;28;20545;-73
2021/11/20 06:35:35;;;;;;;21.50;10.48;;;11.50;99.90;;;;;;5103493;28;20103;-72
2021/11/20 06:38:01;;;;;;;25.13;11.07;;;11.50;99.90;;;;;;5101276;28;20066;-72
2021/11/20 06:40:36;;;;;;;23.80;10.63;;;11.50;99.90;;;;;;5102226;28;20454;-73
2021/11/20 06:43:04;;;;;;;21.88;12.07;;;11.40;99.90;;;;;;5102248;28;20020;-73
2021/11/20 06:45:37;;;;;;;18.77;10.13;;;11.50;99.90;;;;;;5103756;28;20118;-73
2021/11/20 06:48:04;;;;;;;23.13;10.55;;;11.40;99.90;;;;;;5084817;28;20030;-73
2021/11/20 06:50:34;;;;;;;26.02;11.10;;;11.40;99.90;;;;;;5098782;28;20408;-73
2021/11/20 06:53:05;;;;;;;23.98;10.82;;;11.40;99.90;;;;;;5083347;28;20423;-74
2021/11/20 06:55:34;;;;;;;25.13;12.18;;;11.40;99.90;;;;;;5101229;28;20134;-73
2021/11/20 07:00:40;;;;;;;20.75;10.50;;;11.40;99.90;;;;;;5100779;28;20122;-73
2021/11/20 07:03:13;;;;;;;24.42;10.70;;;11.50;99.90;;;;;;5089632;28;20026;-73
2021/11/20 07:05:47;;;;;;;21.45;10.07;;;11.40;99.90;;;;;;5100395;28;20096;-73
2021/11/20 07:08:15;;;;;;;20.60;10.45;;;11.40;99.90;;;;;;5101457;28;20024;-73
2021/11/20 07:10:42;;;;;;;22.15;11.27;;;11.50;99.90;;;;;;5101013;28;20028;-73
2021/11/20 07:13:10;;;;;;;20.65;10.38;;;11.50;99.90;;;;;;5101721;28;20495;-73
2021/11/20 07:15:36;;;;;;;17.77;10.82;;;11.50;99.90;;;;;;5104478;28;20028;-73
2021/11/20 07:18:02;;;;;;;17.40;10.20;;;11.50;99.90;;;;;;5101091;28;20035;-72
2021/11/20 07:20:32;;;;;;;25.70;11.23;;;11.50;99.90;;;;;;5101686;28;20034;-73
2021/11/20 07:22:58;;;;;;;23.42;11.65;;;11.50;99.90;;;;;;5101755;28;20423;-72
2021/11/20 07:25:26;;;;;;;22.15;11.65;;;11.40;99.90;;;;;;5101181;28;20031;-73
2021/11/20 07:27:53;;;;;;;22.48;11.35;;;11.40;99.90;;;;;;5100389;28;20035;-73
2021/11/20 07:30:20;;;;;;;22.83;11.48;;;11.50;99.90;;;;;;5103533;28;20507;-73
2021/11/20 07:32:46;;;;;;;20.15;10.57;;;11.40;99.90;;;;;;5106108;28;20031;-73
2021/11/20 07:35:21;;;;;;;24.30;11.82;;;11.50;99.90;;;;;;5102033;28;20023;-73
2021/11/20 07:37:47;;;;;;;26.15;11.50;;;11.40;99.90;;;;;;5106118;28;20073;-73
2021/11/20 07:40:13;;;;;;;22.17;10.85;;;11.40;99.90;;;;;;5101370;28;20020;-74
2021/11/20 07:42:38;;;;;;;22.00;10.25;;;11.50;99.90;;;;;;5101183;28;20043;-73
2021/11/20 07:45:05;;;;;;;21.70;10.93;;;11.50;99.90;;;;;;5099590;28;20051;-72
2021/11/20 07:47:31;;;;;;;20.88;11.43;;;11.70;99.90;;;;;;5107003;28;20024;-73
2021/11/20 07:49:57;;;;;;;19.63;11.05;;;11.70;99.90;;;;;;5097582;28;20024;-73
2021/11/20 07:52:23;;;;;;;22.95;11.25;;;11.70;99.90;;;;;;5096054;27;20030;-73
2021/11/20 07:54:49;;;;;;;25.77;11.52;;;11.90;99.90;;;;;;5090802;27;20550;-73
2021/11/20 07:57:15;;;;;;;20.75;11.43;;;12.00;99.90;;;;;;5076582;28;20028;-73
2021/11/20 07:59:41;;;;;;;21.70;10.48;;;12.00;99.90;;;;;;5082099;28;20869;-72
2021/11/20 08:02:08;;;;;;;20.40;11.70;;;11.90;99.90;;;;;;5093612;28;20034;-73
2021/11/20 08:04:36;;;;;;;20.13;10.70;;;11.90;99.90;;;;;;5094681;28;20039;-73
2021/11/20 08:07:03;;;;;;;20.67;11.55;;;11.80;99.90;;;;;;5093781;28;20034;-73
2021/11/20 08:09:29;;;;;;;23.38;11.95;;;11.70;99.90;;;;;;5091361;28;20032;-74
2021/11/20 08:11:55;;;;;;;21.25;10.80;;;11.60;99.90;;;;;;5091362;28;20038;-73
2021/11/20 08:14:21;;;;;;;24.65;12.23;;;11.60;99.90;;;;;;5093673;28;20035;-73
2021/11/20 08:16:47;;;;;;;22.95;11.77;;;11.60;99.90;;;;;;5097762;27;20099;-73
2021/11/20 08:19:13;;;;;;;23.02;11.68;;;11.60;99.90;;;;;;5095181;28;20024;-72
2021/11/20 08:21:40;;;;;;;24.70;12.32;;;11.60;99.90;;;;;;5095187;28;20059;-72
2021/11/20 08:24:06;;;;;;;21.92;10.90;;;11.60;99.90;;;;;;5096902;28;20028;-73
2021/11/20 08:26:38;;;;;;;19.58;10.90;;;11.60;99.90;;;;;;5076738;28;20077;-75
2021/11/20 08:29:07;;;;;;;19.42;11.27;;;11.60;99.90;;;;;;5096465;28;20032;-72
2021/11/20 08:31:34;;;;;;;23.38;11.80;;;11.60;99.90;;;;;;5094693;27;20072;-72
2021/11/20 08:34:01;;;;;;;24.25;12.07;;;11.50;99.90;;;;;;5095051;28;20028;-72
2021/11/20 08:36:27;;;;;;;21.38;11.23;;;11.60;99.90;;;;;;5098491;28;20080;-73
2021/11/20 08:38:54;;;;;;;18.80;10.00;;;11.60;99.90;;;;;;5098676;28;20503;-72
2021/11/20 08:41:20;;;;;;;20.13;10.55;;;11.60;99.90;;;;;;5102002;28;20042;-72
2021/11/20 08:43:46;;;;;;;27.10;10.60;;;11.60;99.90;;;;;;5104627;28;20019;-72
2021/11/20 08:46:12;;;;;;;14.48;9.40;;;11.60;99.90;;;;;;5104622;28;20034;-72
2021/11/20 08:48:38;;;;;;;14.57;9.23;;;11.60;99.90;;;;;;5099453;28;20028;-73
2021/11/20 08:51:11;;;;;;;18.00;9.60;;;11.60;99.90;;;;;;5103548;28;20028;-72
2021/11/20 08:53:38;;;;;;;17.98;9.40;;;11.60;99.90;;;;;;5101440;28;20027;-73
2021/11/20 08:56:04;;;;;;;23.67;10.50;;;11.60;99.90;;;;;;5102936;28;20485;-72
2021/11/20 08:58:35;;;;;;;19.67;9.63;;;11.60;99.90;;;;;;5103142;28;20390;-72
2021/11/20 09:01:12;;;;;;;15.00;8.38;;;11.60;99.90;;;;;;5103117;28;20023;-72
2021/11/20 09:03:47;;;;;;;15.32;8.75;;;11.60;99.90;;;;;;5103118;28;20028;-72
2021/11/20 09:06:21;;;;;;;19.10;9.32;;;11.70;99.90;;;;;;5084389;28;20031;-72
2021/11/20 09:08:58;;;;;;;14.85;7.47;;;11.70;99.90;;;;;;5101983;28;20060;-73
2021/11/20 09:11:48;;;;;;;14.82;7.57;;;11.70;99.90;;;;;;5090929;28;20028;-73
2021/11/20 09:14:24;;;;;;;13.35;7.53;;;11.70;99.90;;;;;;5095618;28;20039;-74
2021/11/20 09:16:51;;;;;;;14.13;7.28;;;11.80;99.90;;;;;;5077540;28;20544;-73
2021/11/20 09:19:17;;;;;;;13.23;8.55;;;11.80;99.90;;;;;;5078554;28;20028;-73
2021/11/20 09:21:43;;;;;;;15.68;7.78;;;11.80;99.90;;;;;;5094737;28;20027;-73
2021/11/20 09:24:10;;;;;;;13.95;7.50;;;11.80;99.90;;;;;;5104244;28;20024;-73
2021/11/20 09:26:39;;;;;;;15.10;8.10;;;11.80;99.90;;;;;;5100498;28;20497;-73
2021/11/20 09:29:09;;;;;;;15.70;7.72;;;11.80;99.90;;;;;;5086099;28;20087;-74
2021/11/20 09:31:40;;;;;;;15.00;8.32;;;11.90;99.90;;;;;;5105084;28;20023;-74
2021/11/20 09:34:06;;;;;;;13.07;7.10;;;11.90;99.90;;;;;;5100105;28;20016;-73
2021/11/20 09:36:33;;;;;;;11.00;6.55;;;11.90;99.90;;;;;;5097856;28;20539;-73
2021/11/20 09:38:59;;;;;;;15.18;8.02;;;12.00;99.90;;;;;;5100965;28;20085;-73
2021/11/20 09:41:38;;;;;;;11.90;6.68;;;12.00;99.90;;;;;;5100157;28;20024;-73
2021/11/20 09:44:06;;;;;;;14.00;7.38;;;12.10;99.90;;;;;;5102640;28;20020;-73
2021/11/20 09:46:44;;;;;;;15.95;7.97;;;12.00;99.90;;;;;;5104431;28;20020;-73
2021/11/20 09:49:17;;;;;;;15.70;7.10;;;12.00;99.90;;;;;;5101606;28;20080;-73
2021/11/20 09:51:47;;;;;;;11.10;7.00;;;12.10;99.90;;;;;;5103231;28;20055;-73
2021/11/20 09:54:18;;;;;;;15.00;7.22;;;12.00;99.90;;;;;;5086097;28;20031;-73
2021/11/20 09:56:52;;;;;;;12.13;7.32;;;12.00;99.90;;;;;;5103267;28;20066;-72
2021/11/20 09:59:28;;;;;;;15.02;7.28;;;12.10;99.90;;;;;;5096491;28;20028;-74
2021/11/20 10:02:16;;;;;;;12.80;6.93;;;12.10;99.90;;;;;;5100449;28;20846;-73
2021/11/20 10:04:51;;;;;;;9.85;7.00;;;12.10;99.90;;;;;;5100350;28;20290;-73
2021/11/20 10:07:23;;;;;;;12.93;7.32;;;12.10;99.90;;;;;;5098504;28;20062;-72
2021/11/20 10:09:52;;;;;;;11.82;7.55;;;12.10;99.90;;;;;;5095528;28;20027;-72
2021/11/20 10:12:30;;;;;;;13.18;7.30;;;12.10;99.90;;;;;;5098736;28;20028;-72
2021/11/20 10:15:02;;;;;;;13.07;7.35;;;12.10;99.90;;;;;;5097413;28;20553;-73
2021/11/20 10:17:40;;;;;;;11.95;7.45;;;12.10;99.90;;;;;;5095451;28;20478;-72
2021/11/20 10:20:23;;;;;;;12.57;7.15;;;12.10;99.90;;;;;;5095320;28;20063;-73
2021/11/20 10:22:55;;;;;;;11.77;6.93;;;12.10;99.90;;;;;;5080773;28;20463;-72
2021/11/20 10:25:29;;;;;;;12.18;6.35;;;12.10;99.90;;;;;;5101578;28;20115;-72
2021/11/20 10:28:27;;;;;;;9.63;6.40;;;12.20;99.90;;;;;;5096844;28;20062;-71
2021/11/20 10:31:07;;;;;;;11.05;6.53;;;12.10;99.90;;;;;;5085841;28;20085;-71
2021/11/20 10:33:43;;;;;;;9.63;6.53;;;12.20;99.90;;;;;;5103500;28;20032;-70
2021/11/20 10:36:21;;;;;;;12.52;7.22;;;12.20;99.90;;;;;;5083417;28;20024;-72
2021/11/20 10:38:56;;;;;;;11.70;7.22;;;12.20;99.90;;;;;;5102185;28;20962;-71
2021/11/20 10:41:38;;;;;;;11.23;6.90;;;12.20;99.90;;;;;;5102037;28;20104;-73
2021/11/20 10:44:19;;;;;;;12.70;7.40;;;12.10;99.90;;;;;;5101487;28;20371;-72
2021/11/20 10:46:57;;;;;;;8.18;5.93;;;12.20;99.90;;;;;;5099032;28;20552;-71
2021/11/20 10:49:35;;;;;;;10.93;6.40;;;12.20;99.90;;;;;;5101122;28;20039;-72
2021/11/20 10:52:30;;;;;;;10.90;6.72;;;12.20;99.90;;;;;;5099450;28;20378;-73
2021/11/20 10:55:15;;;;;;;10.00;7.18;;;12.20;99.90;;;;;;5100694;28;20114;-72
2021/11/20 10:57:59;;;;;;;12.90;6.75;;;12.20;99.90;;;;;;5096672;28;20032;-73
2021/11/20 11:00:36;;;;;;;8.38;6.55;;;12.20;99.90;;;;;;5101326;28;20032;-73
2021/11/20 11:03:33;;;;;;;11.05;6.78;;;12.10;99.90;;;;;;5100367;28;20388;-74
2021/11/20 11:06:27;;;;;;;10.65;7.28;;;12.10;99.90;;;;;;5081484;28;20032;-73
2021/11/20 11:09:02;;;;;;;12.55;7.55;;;12.10;99.90;;;;;;5101481;28;20030;-73
2021/11/20 11:11:33;;;;;;;10.82;6.90;;;12.10;99.90;;;;;;5100228;28;20163;-70
2021/11/20 11:14:01;;;;;;;11.20;6.75;;;12.10;99.90;;;;;;5103831;28;20038;-70
2021/11/20 11:16:49;;;;;;;13.23;7.47;;;12.10;99.90;;;;;;5064902;28;20120;-72
2021/11/20 11:19:30;;;;;;;11.52;7.18;;;12.10;99.90;;;;;;5103756;28;20049;-72
2021/11/20 11:22:03;;;;;;;10.63;6.38;;;12.00;99.90;;;;;;5097922;28;20027;-71
2021/11/20 11:24:59;;;;;;;12.30;6.25;;;12.00;99.90;;;;;;5101058;28;20039;-71
2021/11/20 11:27:43;;;;;;;16.13;8.00;;;12.10;99.90;;;;;;5102783;28;20066;-71
2021/11/20 11:30:19;;;;;;;14.73;7.55;;;12.10;99.90;;;;;;5080331;28;20514;-71
2021/11/20 11:32:46;;;;;;;11.48;7.60;;;12.00;99.90;;;;;;5099335;28;20030;-72
2021/11/20 11:35:26;;;;;;;9.95;6.90;;;11.90;99.90;;;;;;5100008;28;20056;-73
2021/11/20 11:38:20;;;;;;;12.45;7.85;;;11.90;99.90;;;;;;5099644;28;20385;-73
2021/11/20 11:40:53;;;;;;;11.20;7.72;;;11.90;99.90;;;;;;5101119;28;20024;-72
2021/11/20 11:43:45;;;;;;;13.55;8.52;;;11.90;99.90;;;;;;5099211;28;20481;-74
2021/11/20 11:46:36;;;;;;;12.10;8.35;;;11.90;99.90;;;;;;5083317;28;20051;-73
2021/11/20 11:49:14;;;;;;;11.38;8.27;;;11.90;99.90;;;;;;5100166;28;20028;-73
2021/11/20 11:51:54;;;;;;;14.18;9.48;;;11.90;99.90;;;;;;5102728;28;20028;-71
2021/11/20 11:54:20;;;;;;;12.45;7.63;;;11.90;99.90;;;;;;5081930;28;20035;-71
2021/11/20 11:57:12;;;;;;;13.80;8.15;;;11.90;99.90;;;;;;5067250;28;20431;-71
2021/11/20 11:59:50;;;;;;;12.35;9.25;;;11.90;99.90;;;;;;5107656;28;20055;-72
2021/11/20 12:02:21;;;;;;;13.75;9.60;;;11.90;99.90;;;;;;5104604;28;20168;-71
2021/11/20 12:04:49;;;;;;;;;;;11.80;99.90;;;;;;5104474;28;20027;-71
2021/11/20 12:07:45;;;;;;;12.77;9.77;;;11.90;99.90;;;;;;5108783;28;19994;-73
2021/11/20 12:10:32;;;;;;;11.98;9.00;;;11.80;99.90;;;;;;5097474;28;20035;-71
2021/11/20 12:13:04;;;;;;;15.45;10.45;;;11.80;99.90;;;;;;5109524;28;20235;-70
2021/11/20 12:15:36;;;;;;;15.77;10.60;;;11.90;99.90;;;;;;5109769;28;20070;-71
2021/11/20 12:18:12;;;;;;;13.45;9.95;;;11.80;99.90;;;;;;5104237;28;20077;-72
2021/11/20 12:21:16;;;;;;;14.50;10.77;;;11.80;99.90;;;;;;5100249;28;20027;-72
2021/11/20 12:24:20;;;;;;;15.60;10.48;;;11.90;99.90;;;;;;5104901;28;20035;-72
2021/11/20 12:26:51;;;;;;;16.55;11.20;;;11.80;99.90;;;;;;5083518;28;20106;-72
2021/11/20 12:29:22;;;;;;;15.10;10.23;;;11.80;99.90;;;;;;5088555;28;20030;-72
2021/11/20 12:32:21;;;;;;;16.77;10.52;;;11.80;99.90;;;;;;5105007;28;20035;-74
2021/11/20 12:35:16;;;;;;;16.50;11.18;;;11.90;99.90;;;;;;5099171;28;20103;-71
2021/11/20 12:37:52;;;;;;;15.35;10.48;;;11.90;99.90;;;;;;5104351;28;20456;-71
2021/11/20 12:40:47;;;;;;;14.60;10.82;;;11.90;99.90;;;;;;5108481;28;20030;-71
2021/11/20 12:43:41;;;;;;;18.30;12.23;;;12.00;99.90;;;;;;5100688;28;20481;-72
2021/11/20 12:46:12;;;;;;;16.33;10.50;;;11.90;99.90;;;;;;5098252;28;20036;-73
2021/11/20 12:48:41;;;;;;;20.00;12.95;;;11.90;99.90;;;;;;5101511;28;20054;-73
2021/11/20 12:51:18;;;;;;;16.42;12.35;;;11.90;99.90;;;;;;5102811;28;20023;-71
2021/11/20 12:53:50;;;;;;;18.00;13.48;;;11.90;99.90;;;;;;5101266;28;20032;-72
2021/11/20 12:56:18;;;;;;;19.77;12.15;;;11.90;99.90;;;;;;5097623;28;20028;-70
2021/11/20 12:58:49;;;;;;;19.52;12.82;;;11.80;99.90;;;;;;5110782;28;20103;-71